Time;durP1;ratioP1;P1;durP2;ratioP2;P2;SDS_P1;SDS_P2;PMS_P1;PMS_P2;Temp;Humidity;BMP_temperature;BMP_pressure;BME280_temperature;BME280_humidity;BME280_pressure;Samples;Min_cycle;Max_cycle;Signal;HPM_P1;HPM_P2
2023/06/21 00:00:00;;;;;;;14.98;5.30;;;28.40;50.90;;;;;;6258728;28;20060;-70
2023/06/21 00:03:01;;;;;;;13.98;6.18;;;28.30;50.90;;;;;;6242474;28;20034;-71
2023/06/21 00:06:02;;;;;;;12.15;5.57;;;28.20;51.10;;;;;;6257781;28;20584;-71
2023/06/21 00:09:03;;;;;;;13.52;5.38;;;28.20;51.20;;;;;;6240467;28;20141;-71
2023/06/21 00:12:04;;;;;;;17.15;5.80;;;28.10;51.30;;;;;;6242032;28;20040;-70
2023/06/21 00:15:06;;;;;;;21.10;5.93;;;28.10;51.50;;;;;;6241971;28;20109;-71
2023/06/21 00:18:06;;;;;;;12.77;5.43;;;28.00;51.60;;;;;;6240306;28;20030;-70
2023/06/21 00:21:07;;;;;;;19.65;5.90;;;27.90;51.90;;;;;;6241298;28;20051;-71
2023/06/21 00:24:08;;;;;;;20.55;5.65;;;27.80;52.00;;;;;;6241422;28;20149;-70
2023/06/21 00:27:09;;;;;;;15.27;5.78;;;27.80;52.10;;;;;;6241344;28;20813;-71
2023/06/21 00:30:10;;;;;;;14.63;4.78;;;27.80;52.70;;;;;;6239284;28;20449;-71
2023/06/21 00:33:12;;;;;;;14.98;5.13;;;27.80;52.40;;;;;;6239502;28;20479;-70
2023/06/21 00:36:14;;;;;;;24.60;5.10;;;27.80;52.60;;;;;;6240293;28;20527;-71
2023/06/21 00:39:16;;;;;;;14.57;5.45;;;27.80;52.70;;;;;;6241133;28;20036;-70
2023/06/21 00:42:17;;;;;;;15.00;5.40;;;27.80;52.70;;;;;;6239678;28;20430;-70
2023/06/21 00:45:20;;;;;;;11.13;5.75;;;27.90;52.60;;;;;;6224114;28;20036;-70
2023/06/21 00:48:21;;;;;;;13.10;6.07;;;27.90;52.40;;;;;;6240994;28;20029;-70
2023/06/21 00:51:22;;;;;;;10.32;5.38;;;27.90;52.40;;;;;;6239383;28;20030;-70
2023/06/21 00:54:42;;;;;;;12.55;6.38;;;27.90;52.40;;;;;;6256231;28;20530;-71
2023/06/21 00:57:44;;;;;;;13.60;6.43;;;27.80;52.40;;;;;;6239379;28;20044;-70
2023/06/21 01:00:45;;;;;;;13.45;5.95;;;27.80;52.40;;;;;;6239636;28;20048;-72
2023/06/21 01:03:46;;;;;;;15.82;7.13;;;27.80;52.40;;;;;;6256054;28;20401;-69
2023/06/21 01:07:13;;;;;;;12.07;6.13;;;27.80;52.50;;;;;;6239659;28;20088;-70
2023/06/21 01:10:36;;;;;;;20.00;5.72;;;27.70;52.60;;;;;;6239425;28;20037;-71
2023/06/21 01:13:49;;;;;;;20.02;5.55;;;27.70;52.70;;;;;;6239016;28;20508;-71
2023/06/21 01:16:52;;;;;;;10.38;5.88;;;27.70;52.80;;;;;;6255936;28;20040;-72
2023/06/21 01:19:56;;;;;;;11.18;6.28;;;27.70;52.80;;;;;;6255467;28;20048;-70
2023/06/21 01:23:17;;;;;;;13.88;5.82;;;27.70;53.00;;;;;;6255088;28;20033;-71
2023/06/21 01:26:28;;;;;;;10.88;6.25;;;27.70;53.60;;;;;;6255962;28;20159;-71
2023/06/21 01:29:34;;;;;;;13.82;5.95;;;27.70;53.10;;;;;;6255318;28;20057;-70
2023/06/21 01:32:37;;;;;;;15.38;6.47;;;27.70;53.10;;;;;;6255114;28;20353;-69
2023/06/21 01:35:39;;;;;;;15.65;5.60;;;27.70;53.20;;;;;;6239047;28;20037;-70
2023/06/21 01:38:40;;;;;;;17.85;7.30;;;27.60;53.10;;;;;;6240467;28;20186;-71
2023/06/21 01:41:44;;;;;;;13.27;5.35;;;27.60;53.80;;;;;;6256357;28;20152;-72
2023/06/21 01:44:45;;;;;;;20.45;4.93;;;27.60;53.40;;;;;;6244312;28;20037;-70
2023/06/21 01:47:46;;;;;;;22.25;5.50;;;27.60;53.50;;;;;;6243867;28;20394;-72
2023/06/21 01:50:48;;;;;;;19.10;5.90;;;27.60;53.50;;;;;;6243916;28;20029;-69
2023/06/21 01:53:50;;;;;;;17.88;5.72;;;27.60;53.60;;;;;;6243342;28;20036;-71
2023/06/21 01:57:00;;;;;;;12.50;5.63;;;27.60;53.60;;;;;;6243456;28;20032;-70
2023/06/21 02:00:16;;;;;;;13.35;5.80;;;27.50;53.60;;;;;;6243469;28;20037;-70
2023/06/21 02:03:20;;;;;;;10.13;4.82;;;27.60;53.70;;;;;;6258355;28;20033;-70
2023/06/21 02:06:26;;;;;;;18.15;6.57;;;27.60;53.70;;;;;;6243472;28;20414;-72
2023/06/21 02:09:27;;;;;;;16.58;5.82;;;27.60;53.80;;;;;;6243656;28;20034;-70
2023/06/21 02:12:34;;;;;;;18.50;6.40;;;27.60;53.90;;;;;;6242973;28;20187;-70
2023/06/21 02:15:38;;;;;;;13.37;5.63;;;27.50;53.90;;;;;;6259869;28;20033;-71
2023/06/21 02:18:39;;;;;;;9.68;5.57;;;27.40;54.50;;;;;;6242980;28;20033;-70
2023/06/21 02:21:40;;;;;;;21.27;6.45;;;27.40;54.00;;;;;;6242431;28;20141;-71
2023/06/21 02:24:41;;;;;;;18.90;5.55;;;27.30;54.10;;;;;;6242751;28;20037;-71
2023/06/21 02:27:42;;;;;;;12.95;6.18;;;27.30;54.20;;;;;;6244071;28;20040;-70
2023/06/21 02:30:46;;;;;;;13.77;6.28;;;27.30;54.30;;;;;;6243819;28;20033;-70
2023/06/21 02:33:48;;;;;;;18.52;6.78;;;27.20;54.30;;;;;;6242649;28;20048;-69
2023/06/21 02:36:53;;;;;;;21.38;6.90;;;27.20;54.40;;;;;;6262050;28;20033;-70
2023/06/21 02:39:57;;;;;;;21.90;6.95;;;27.10;54.40;;;;;;6260497;28;20144;-71
2023/06/21 02:42:58;;;;;;;10.35;6.03;;;27.10;54.60;;;;;;6259797;28;20025;-71
2023/06/21 02:46:00;;;;;;;13.43;6.18;;;27.10;54.50;;;;;;6226768;28;20036;-70
2023/06/21 02:49:01;;;;;;;12.35;6.00;;;27.10;54.50;;;;;;6261045;28;20029;-69
2023/06/21 02:52:06;;;;;;;19.58;6.55;;;27.10;54.50;;;;;;6265293;28;20472;-70
2023/06/21 02:55:07;;;;;;;11.40;6.32;;;27.10;54.60;;;;;;6248358;28;20037;-71
2023/06/21 02:58:08;;;;;;;13.75;5.90;;;27.10;54.70;;;;;;6244909;28;20053;-71
2023/06/21 03:01:13;;;;;;;16.42;6.57;;;27.10;54.80;;;;;;6251382;28;20036;-71
2023/06/21 03:04:18;;;;;;;14.13;5.80;;;27.00;54.80;;;;;;6260540;28;20049;-70
2023/06/21 03:07:19;;;;;;;14.35;6.15;;;27.00;54.90;;;;;;6268880;28;20179;-70
2023/06/21 03:10:20;;;;;;;22.95;7.25;;;27.00;54.90;;;;;;6258687;28;20137;-72
2023/06/21 03:13:21;;;;;;;12.48;5.75;;;26.90;55.10;;;;;;6275507;28;20088;-71
2023/06/21 03:16:23;;;;;;;13.73;6.85;;;26.90;55.20;;;;;;6263905;28;20029;-70
2023/06/21 03:19:24;;;;;;;19.83;6.10;;;26.90;55.30;;;;;;6249290;28;20058;-70
2023/06/21 03:22:27;;;;;;;14.07;6.63;;;26.90;55.30;;;;;;6251500;28;20048;-70
2023/06/21 03:25:28;;;;;;;15.35;6.53;;;26.90;55.30;;;;;;6244423;28;20029;-71
2023/06/21 03:28:29;;;;;;;13.95;6.47;;;26.90;55.40;;;;;;6242935;28;20107;-70
2023/06/21 03:31:30;;;;;;;15.63;6.10;;;26.90;55.30;;;;;;6245349;28;20068;-70
2023/06/21 03:34:31;;;;;;;12.65;6.45;;;26.90;55.20;;;;;;6228009;28;20434;-71
2023/06/21 03:37:32;;;;;;;15.25;7.28;;;26.90;55.10;;;;;;6242627;28;20030;-70
2023/06/21 03:40:33;;;;;;;16.10;6.70;;;26.90;55.00;;;;;;6242892;28;20032;-71
2023/06/21 03:43:34;;;;;;;18.23;6.85;;;27.00;54.90;;;;;;6243027;28;20700;-71
2023/06/21 03:46:40;;;;;;;15.48;6.43;;;27.00;55.00;;;;;;6241788;28;20411;-71
2023/06/21 03:49:41;;;;;;;17.30;5.85;;;27.00;55.00;;;;;;6241407;28;20082;-72
2023/06/21 03:52:46;;;;;;;13.57;5.93;;;27.00;55.10;;;;;;6257249;28;20038;-70
2023/06/21 03:55:47;;;;;;;13.38;5.70;;;27.00;55.20;;;;;;6257234;28;20423;-70
2023/06/21 03:58:47;;;;;;;16.65;5.40;;;26.90;55.20;;;;;;6257199;28;20096;-71
2023/06/21 04:01:48;;;;;;;12.38;6.13;;;26.90;55.30;;;;;;6256583;28;20033;-70
2023/06/21 04:04:49;;;;;;;17.27;5.95;;;26.90;55.30;;;;;;6239381;28;20124;-71
2023/06/21 04:07:50;;;;;;;21.50;6.35;;;26.90;55.40;;;;;;6256584;28;20061;-71
2023/06/21 04:10:52;;;;;;;13.68;5.85;;;26.90;55.50;;;;;;6256950;28;20026;-72
2023/06/21 04:13:52;;;;;;;16.35;7.70;;;26.90;55.50;;;;;;6241874;28;20041;-71
2023/06/21 04:16:53;;;;;;;13.75;5.72;;;26.80;55.60;;;;;;6240231;28;20117;-71
2023/06/21 04:19:55;;;;;;;16.08;6.63;;;26.80;55.70;;;;;;6256567;28;20099;-71
2023/06/21 04:22:57;;;;;;;14.85;6.18;;;26.80;55.70;;;;;;6239211;28;20044;-71
2023/06/21 04:26:00;;;;;;;20.70;6.15;;;26.80;55.80;;;;;;6240158;28;20021;-70
2023/06/21 04:29:01;;;;;;;24.25;5.70;;;26.80;55.70;;;;;;6241456;28;20147;-69
2023/06/21 04:32:03;;;;;;;20.88;6.50;;;26.80;55.60;;;;;;6256087;28;20030;-71
2023/06/21 04:35:04;;;;;;;14.60;5.88;;;26.80;55.40;;;;;;6241733;28;20018;-70
2023/06/21 04:38:05;;;;;;;15.98;5.40;;;26.90;55.30;;;;;;6242592;28;20451;-71
2023/06/21 04:41:06;;;;;;;25.95;5.85;;;26.90;55.20;;;;;;6239549;28;20033;-71
2023/06/21 04:44:06;;;;;;;13.77;6.10;;;26.90;55.00;;;;;;6239814;28;20040;-71
2023/06/21 04:47:08;;;;;;;18.48;6.60;;;26.90;54.90;;;;;;6241208;28;20033;-69
2023/06/21 04:50:10;;;;;;;15.20;5.57;;;26.90;54.90;;;;;;6239895;28;20544;-71
2023/06/21 04:53:14;;;;;;;14.10;5.75;;;26.90;54.90;;;;;;6239653;28;20033;-70
2023/06/21 04:56:15;;;;;;;23.05;6.68;;;26.90;55.00;;;;;;6241577;28;20045;-71
2023/06/21 04:59:16;;;;;;;15.77;6.75;;;26.90;55.10;;;;;;6241415;28;20035;-70
2023/06/21 05:02:17;;;;;;;22.77;7.22;;;27.00;55.20;;;;;;6256094;28;20143;-71
2023/06/21 05:05:19;;;;;;;23.25;7.30;;;27.00;55.30;;;;;;6241502;28;20125;-70
2023/06/21 05:08:19;;;;;;;15.10;6.55;;;27.00;55.40;;;;;;6223133;28;20131;-71
2023/06/21 05:11:21;;;;;;;16.35;6.47;;;27.00;55.50;;;;;;6240752;28;20029;-69
2023/06/21 05:14:21;;;;;;;35.83;7.32;;;27.10;55.50;;;;;;6256312;28;20041;-71
2023/06/21 05:17:22;;;;;;;20.45;6.80;;;27.20;55.50;;;;;;6258018;28;20052;-70
2023/06/21 05:20:23;;;;;;;20.08;6.85;;;27.30;55.50;;;;;;6246048;28;20495;-70
2023/06/21 05:23:24;;;;;;;19.17;8.10;;;27.30;55.30;;;;;;6245049;28;20108;-71
2023/06/21 05:26:25;;;;;;;28.17;7.55;;;27.30;55.30;;;;;;6260643;28;20433;-71
2023/06/21 05:29:26;;;;;;;23.77;7.40;;;27.30;55.30;;;;;;6244891;28;20350;-71
2023/06/21 05:32:27;;;;;;;18.15;7.45;;;27.40;55.30;;;;;;6244993;28;20033;-70
2023/06/21 05:35:27;;;;;;;18.67;6.70;;;27.40;55.20;;;;;;6243909;28;20034;-70
2023/06/21 05:38:28;;;;;;;20.65;6.70;;;27.40;55.20;;;;;;6245337;28;20029;-70
2023/06/21 05:41:29;;;;;;;13.35;6.72;;;27.40;55.10;;;;;;6243662;28;20446;-71
2023/06/21 05:44:30;;;;;;;13.07;6.78;;;27.40;55.20;;;;;;6244979;28;20102;-71
2023/06/21 05:47:31;;;;;;;18.75;7.35;;;27.30;55.10;;;;;;6243813;28;20128;-70
2023/06/21 05:50:32;;;;;;;18.67;7.65;;;27.30;55.30;;;;;;6243783;28;20064;-70
2023/06/21 05:53:33;;;;;;;16.17;6.50;;;27.30;55.40;;;;;;6244396;28;20028;-71
2023/06/21 05:56:37;;;;;;;16.25;6.95;;;27.30;55.40;;;;;;6245125;28;20115;-72
2023/06/21 05:59:38;;;;;;;13.90;6.47;;;27.30;55.40;;;;;;6245171;28;20041;-70
2023/06/21 06:02:39;;;;;;;26.52;7.57;;;27.40;55.30;;;;;;6243081;28;20117;-70
2023/06/21 06:05:39;;;;;;;20.27;6.35;;;27.40;55.20;;;;;;6243706;28;20139;-71
2023/06/21 06:08:41;;;;;;;20.65;7.45;;;27.50;55.20;;;;;;6243573;28;20041;-71
2023/06/21 06:11:41;;;;;;;20.98;6.95;;;27.50;55.10;;;;;;6244606;28;20040;-70
2023/06/21 06:14:42;;;;;;;20.83;6.63;;;27.60;55.00;;;;;;6244627;28;20037;-70
2023/06/21 06:17:44;;;;;;;20.58;7.50;;;27.70;54.80;;;;;;6244747;28;20057;-70
2023/06/21 06:20:45;;;;;;;18.48;7.40;;;27.70;54.60;;;;;;6244608;28;20477;-70
2023/06/21 06:23:46;;;;;;;25.25;7.35;;;27.80;54.40;;;;;;6242466;28;20042;-70
2023/06/21 06:26:47;;;;;;;15.63;7.32;;;27.90;54.30;;;;;;6242985;28;20052;-71
2023/06/21 06:29:48;;;;;;;19.75;7.38;;;27.90;54.10;;;;;;6242948;28;20036;-71
2023/06/21 06:32:48;;;;;;;17.48;6.93;;;28.00;53.90;;;;;;6243247;28;20044;-70
2023/06/21 06:35:49;;;;;;;17.70;6.53;;;28.10;53.70;;;;;;6243686;28;20032;-71
2023/06/21 06:38:52;;;;;;;14.73;6.60;;;28.20;53.50;;;;;;6245501;28;20051;-71
2023/06/21 06:41:53;;;;;;;21.15;8.27;;;28.30;53.20;;;;;;6243803;28;20140;-69
2023/06/21 06:44:55;;;;;;;18.52;7.43;;;28.40;52.90;;;;;;6242717;28;20121;-71
2023/06/21 06:47:56;;;;;;;12.23;7.15;;;28.60;52.70;;;;;;6242186;28;20039;-72
2023/06/21 06:50:57;;;;;;;17.80;7.18;;;28.70;52.50;;;;;;6258550;28;20132;-70
2023/06/21 06:53:58;;;;;;;18.33;6.50;;;28.70;52.30;;;;;;6243529;28;20025;-70
2023/06/21 06:56:59;;;;;;;19.95;7.35;;;28.70;52.20;;;;;;6243911;28;20033;-71
2023/06/21 07:00:00;;;;;;;19.42;6.95;;;28.70;52.10;;;;;;6243929;28;20095;-71
2023/06/21 07:03:01;;;;;;;13.70;6.40;;;28.70;52.10;;;;;;6243723;28;20029;-70
2023/06/21 07:06:02;;;;;;;24.17;7.38;;;28.70;52.00;;;;;;6244061;28;20037;-72
2023/06/21 07:09:04;;;;;;;12.40;6.20;;;28.80;52.00;;;;;;6243916;28;20100;-71
2023/06/21 07:12:05;;;;;;;20.90;6.53;;;28.80;52.50;;;;;;6258366;28;20044;-70
2023/06/21 07:15:06;;;;;;;22.88;7.35;;;28.80;51.90;;;;;;6242037;28;20483;-72
2023/06/21 07:18:07;;;;;;;22.13;7.13;;;28.80;51.90;;;;;;6225151;28;20034;-70
2023/06/21 07:21:09;;;;;;;14.73;7.13;;;28.90;51.80;;;;;;6243674;28;20107;-70
2023/06/21 07:24:09;;;;;;;18.75;7.05;;;28.90;51.70;;;;;;6242906;28;20056;-71
2023/06/21 07:27:10;;;;;;;15.40;6.43;;;28.90;51.60;;;;;;6257379;28;20041;-71
2023/06/21 07:30:12;;;;;;;18.35;6.88;;;29.00;51.50;;;;;;6241776;28;20446;-70
2023/06/21 07:33:13;;;;;;;24.13;7.22;;;29.10;51.40;;;;;;6240675;28;20049;-71
2023/06/21 07:36:13;;;;;;;17.15;6.75;;;29.10;51.20;;;;;;6242547;28;20021;-71
2023/06/21 07:39:14;;;;;;;15.27;6.80;;;29.20;51.20;;;;;;6242015;28;20657;-71
2023/06/21 07:42:16;;;;;;;23.23;6.22;;;29.30;51.00;;;;;;6241542;28;20049;-70
2023/06/21 07:45:17;;;;;;;16.27;6.30;;;29.40;50.90;;;;;;6242335;28;20064;-72
2023/06/21 07:48:18;;;;;;;16.35;6.55;;;29.50;50.60;;;;;;6240687;28;20029;-71
2023/06/21 07:51:18;;;;;;;17.75;6.10;;;29.50;50.60;;;;;;6224462;28;20036;-71
2023/06/21 07:54:20;;;;;;;20.80;6.30;;;29.50;50.60;;;;;;6241892;28;20060;-71
2023/06/21 07:57:21;;;;;;;21.85;7.05;;;29.50;50.60;;;;;;6242358;28;20029;-71
2023/06/21 08:00:21;;;;;;;20.60;7.53;;;29.50;50.70;;;;;;6258002;28;20033;-70
2023/06/21 08:03:22;;;;;;;19.27;6.60;;;29.50;50.70;;;;;;6240510;28;20056;-71
2023/06/21 08:06:23;;;;;;;23.20;6.82;;;29.50;50.80;;;;;;6242124;28;20473;-70
2023/06/21 08:09:24;;;;;;;27.83;6.60;;;29.50;50.80;;;;;;6242850;28;20033;-70
2023/06/21 08:12:26;;;;;;;20.83;6.78;;;29.40;50.90;;;;;;6257486;28;20508;-72
2023/06/21 08:15:27;;;;;;;20.30;6.97;;;29.40;51.30;;;;;;6243561;28;20169;-71
2023/06/21 08:18:28;;;;;;;18.17;6.32;;;29.20;51.60;;;;;;6242530;28;20490;-70
2023/06/21 08:21:29;;;;;;;26.15;7.78;;;29.10;52.00;;;;;;6258130;28;20037;-71
2023/06/21 08:24:34;;;;;;;28.52;8.27;;;29.00;52.40;;;;;;6241091;28;20041;-71
2023/06/21 08:27:35;;;;;;;24.67;7.65;;;28.90;52.70;;;;;;6249309;28;20044;-71
2023/06/21 08:30:36;;;;;;;19.80;6.90;;;28.90;53.10;;;;;;6225581;28;20033;-72
2023/06/21 08:33:37;;;;;;;15.80;7.68;;;28.80;53.20;;;;;;6241196;28;20037;-71
2023/06/21 08:36:38;;;;;;;15.68;7.13;;;28.70;53.40;;;;;;6243871;28;20111;-72
2023/06/21 08:39:39;;;;;;;28.58;7.47;;;28.70;53.50;;;;;;6242859;28;20037;-72
2023/06/21 08:42:40;;;;;;;20.45;7.10;;;28.70;53.40;;;;;;6241573;28;20037;-71
2023/06/21 08:45:41;;;;;;;22.77;7.60;;;28.70;53.20;;;;;;6242385;28;20029;-71
2023/06/21 08:48:46;;;;;;;18.10;6.93;;;28.90;53.00;;;;;;6241572;28;20170;-72
2023/06/21 08:51:48;;;;;;;19.52;7.60;;;29.00;52.80;;;;;;6256195;28;20127;-71
2023/06/21 08:55:05;;;;;;;25.30;7.50;;;29.00;52.60;;;;;;6240134;28;20623;-71
2023/06/21 08:58:18;;;;;;;16.67;7.13;;;28.90;52.60;;;;;;6241225;28;20124;-71
2023/06/21 09:01:23;;;;;;;17.50;6.80;;;28.90;52.50;;;;;;6239774;28;20029;-71
2023/06/21 09:04:27;;;;;;;20.65;6.90;;;29.00;53.10;;;;;;6241770;28;20060;-71
2023/06/21 09:07:29;;;;;;;17.92;7.20;;;29.00;52.30;;;;;;6241157;28;20059;-71
2023/06/21 09:10:31;;;;;;;18.58;6.68;;;29.20;52.10;;;;;;6239308;28;20037;-71
2023/06/21 09:13:34;;;;;;;18.00;7.43;;;29.50;51.70;;;;;;6239681;28;20386;-70
2023/06/21 09:16:35;;;;;;;20.30;7.03;;;29.70;51.20;;;;;;6239768;28;20125;-70
2023/06/21 09:19:36;;;;;;;29.63;10.52;;;30.00;50.60;;;;;;6256696;28;20135;-71
2023/06/21 09:22:38;;;;;;;17.42;7.60;;;30.20;50.10;;;;;;6240447;28;20040;-71
2023/06/21 09:25:39;;;;;;;21.27;7.93;;;30.40;49.60;;;;;;6241124;28;20045;-73
2023/06/21 09:28:41;;;;;;;21.30;7.72;;;30.70;49.30;;;;;;6240082;28;20047;-72
2023/06/21 09:31:43;;;;;;;17.75;7.20;;;30.90;48.90;;;;;;6240607;28;20025;-72
2023/06/21 09:34:44;;;;;;;16.73;6.95;;;31.00;48.50;;;;;;6240321;28;20411;-70
2023/06/21 09:37:45;;;;;;;16.48;7.03;;;31.10;48.20;;;;;;6242104;28;20160;-70
2023/06/21 09:40:46;;;;;;;15.88;6.70;;;31.20;47.80;;;;;;6239352;28;20069;-71
2023/06/21 09:43:48;;;;;;;17.88;7.40;;;31.30;47.50;;;;;;6240782;28;20029;-72
2023/06/21 09:46:49;;;;;;;20.40;6.63;;;31.50;47.10;;;;;;6206992;28;20037;-72
2023/06/21 09:49:50;;;;;;;16.90;6.65;;;31.70;46.50;;;;;;6240658;28;20048;-70
2023/06/21 09:52:51;;;;;;;14.07;6.57;;;31.70;46.10;;;;;;6239272;28;20462;-71
2023/06/21 09:55:52;;;;;;;18.27;6.40;;;31.90;46.00;;;;;;6255772;28;20039;-73
2023/06/21 09:58:53;;;;;;;19.98;7.60;;;32.00;45.80;;;;;;6255288;28;20053;-72
2023/06/21 10:01:54;;;;;;;12.57;7.22;;;32.10;45.50;;;;;;6239950;28;20040;-70
2023/06/21 10:04:55;;;;;;;15.18;7.28;;;32.10;45.10;;;;;;6257864;28;20038;-72
2023/06/21 10:07:57;;;;;;;18.50;6.72;;;32.20;45.10;;;;;;6244574;28;20101;-72
2023/06/21 10:10:58;;;;;;;16.98;6.65;;;32.20;44.80;;;;;;6226702;28;20025;-72
2023/06/21 10:13:59;;;;;;;19.52;6.68;;;32.20;44.60;;;;;;6242968;28;20049;-74
2023/06/21 10:17:02;;;;;;;20.52;6.78;;;32.20;44.70;;;;;;6244727;28;20045;-71
2023/06/21 10:20:04;;;;;;;11.52;6.40;;;32.40;44.70;;;;;;6242794;28;20124;-71
2023/06/21 10:23:08;;;;;;;12.20;5.65;;;32.60;44.30;;;;;;6257674;28;20057;-72
2023/06/21 10:26:14;;;;;;;14.45;6.15;;;32.70;43.70;;;;;;6243743;28;20099;-71
2023/06/21 10:29:17;;;;;;;16.63;6.43;;;32.80;43.40;;;;;;6243485;28;20051;-71
2023/06/21 10:32:20;;;;;;;18.23;6.65;;;32.90;43.30;;;;;;6240594;28;20036;-72
2023/06/21 10:35:25;;;;;;;21.75;7.20;;;32.90;43.00;;;;;;6242259;28;20034;-72
2023/06/21 10:38:59;;;;;;;19.83;6.93;;;33.00;42.90;;;;;;6258650;28;20068;-70
2023/06/21 10:42:03;;;;;;;18.30;6.32;;;33.20;42.80;;;;;;6239021;28;20033;-71
2023/06/21 10:45:06;;;;;;;18.05;6.10;;;33.30;42.50;;;;;;6243016;28;20343;-71
2023/06/21 10:48:10;;;;;;;26.45;7.00;;;33.30;42.20;;;;;;6241841;28;20049;-72
2023/06/21 10:51:13;;;;;;;15.93;6.05;;;33.30;42.10;;;;;;6243258;28;20091;-71
2023/06/21 10:54:16;;;;;;;16.67;6.07;;;33.50;42.00;;;;;;6240465;28;20040;-72
2023/06/21 10:57:18;;;;;;;17.15;5.88;;;33.70;41.20;;;;;;6258143;28;20040;-72
2023/06/21 11:00:24;;;;;;;18.00;5.80;;;33.90;40.50;;;;;;6243970;28;20029;-71
2023/06/21 11:03:27;;;;;;;23.10;7.03;;;34.10;40.30;;;;;;6241931;28;20406;-71
2023/06/21 11:06:29;;;;;;;23.55;7.10;;;34.20;40.00;;;;;;6258384;28;20033;-72
2023/06/21 11:09:30;;;;;;;19.58;6.68;;;34.40;39.70;;;;;;6241878;28;20108;-72
2023/06/21 11:12:34;;;;;;;15.10;5.75;;;34.90;38.60;;;;;;6240847;28;20525;-71
2023/06/21 11:15:38;;;;;;;16.15;7.20;;;35.50;37.60;;;;;;6256923;28;20029;-71
2023/06/21 11:18:42;;;;;;;21.58;8.23;;;36.10;36.70;;;;;;6241023;28;20078;-72
2023/06/21 11:21:49;;;;;;;18.23;6.63;;;36.50;36.00;;;;;;6241915;28;20030;-72
2023/06/21 11:25:00;;;;;;;22.30;8.40;;;37.00;35.10;;;;;;6240466;28;20052;-72
2023/06/21 11:28:19;;;;;;;19.65;6.82;;;37.30;34.90;;;;;;6241974;28;20026;-73
2023/06/21 11:31:23;;;;;;;16.27;8.10;;;37.40;34.50;;;;;;6242416;28;20041;-73
2023/06/21 11:34:26;;;;;;;12.85;5.00;;;37.80;33.80;;;;;;6242681;28;20091;-71
2023/06/21 11:37:44;;;;;;;13.90;5.15;;;38.10;32.60;;;;;;6242966;28;20032;-72
2023/06/21 11:40:45;;;;;;;;;;;38.10;32.10;;;;;;6258005;28;20038;-71
2023/06/21 11:43:55;;;;;;;16.75;4.90;;;38.30;32.20;;;;;;6241630;28;19912;-72
2023/06/21 11:47:13;;;;;;;18.42;4.80;;;38.50;31.70;;;;;;6257537;28;20075;-75
2023/06/21 11:50:15;;;;;;;13.30;5.13;;;38.80;31.40;;;;;;6240859;28;20040;-75
2023/06/21 11:53:30;;;;;;;19.48;6.20;;;39.20;31.00;;;;;;6242371;28;20056;-73
2023/06/21 11:56:32;;;;;;;16.55;6.25;;;39.30;31.30;;;;;;6256650;28;20052;-72
2023/06/21 11:59:35;;;;;;;26.92;6.93;;;39.10;31.10;;;;;;6241721;28;20029;-72
2023/06/21 12:02:36;;;;;;;22.77;7.00;;;39.30;31.30;;;;;;6242323;28;20037;-73
2023/06/21 12:06:06;;;;;;;19.50;5.97;;;39.40;31.20;;;;;;6241028;28;20034;-73
2023/06/21 12:09:09;;;;;;;15.95;6.45;;;39.30;31.00;;;;;;6173774;28;20044;-72
2023/06/21 12:12:10;;;;;;;21.88;5.63;;;39.00;31.60;;;;;;6189485;28;20038;-72
2023/06/21 12:15:12;;;;;;;17.58;6.70;;;39.00;31.90;;;;;;6190173;28;20800;-74
2023/06/21 12:18:14;;;;;;;13.48;6.30;;;39.00;31.80;;;;;;6174323;28;20042;-73
2023/06/21 12:21:14;;;;;;;16.55;5.90;;;39.20;32.00;;;;;;6189555;28;20184;-74
2023/06/21 12:24:26;;;;;;;13.45;6.07;;;39.20;31.70;;;;;;6189446;28;20042;-74
2023/06/21 12:27:26;;;;;;;13.90;5.75;;;39.30;31.40;;;;;;6189376;28;20034;-73
2023/06/21 12:30:28;;;;;;;19.25;6.80;;;38.80;31.90;;;;;;6189121;28;20030;-74
2023/06/21 12:33:39;;;;;;;21.98;6.30;;;38.60;32.30;;;;;;6189712;28;20046;-73
2023/06/21 12:36:40;;;;;;;12.80;6.30;;;38.40;32.40;;;;;;6187011;28;20035;-73
2023/06/21 12:39:49;;;;;;;20.83;6.88;;;38.20;32.50;;;;;;6190434;28;20124;-74
2023/06/21 12:42:51;;;;;;;17.85;5.97;;;38.20;32.50;;;;;;6184070;28;20030;-74
2023/06/21 12:45:54;;;;;;;15.48;6.70;;;38.50;32.50;;;;;;6218107;28;20111;-73
2023/06/21 12:48:57;;;;;;;15.02;6.70;;;38.70;32.30;;;;;;6256020;28;20040;-74
2023/06/21 12:52:02;;;;;;;16.92;6.15;;;38.90;31.90;;;;;;6248471;28;20017;-73
2023/06/21 12:55:04;;;;;;;21.88;6.00;;;39.20;31.90;;;;;;6256865;28;20401;-74
2023/06/21 12:58:05;;;;;;;18.52;5.03;;;39.30;31.60;;;;;;6249732;28;20025;-73
2023/06/21 13:01:06;;;;;;;17.92;6.25;;;39.60;31.00;;;;;;6248460;28;20388;-73
2023/06/21 13:04:09;;;;;;;12.95;6.28;;;39.80;30.60;;;;;;6267858;28;20070;-73
2023/06/21 13:07:10;;;;;;;13.93;5.85;;;40.00;30.30;;;;;;6260779;28;20056;-73
2023/06/21 13:10:10;;;;;;;10.60;5.97;;;40.30;30.20;;;;;;6267464;28;20033;-73
2023/06/21 13:13:11;;;;;;;14.23;6.40;;;40.40;29.90;;;;;;6246000;28;20501;-73
2023/06/21 13:16:14;;;;;;;13.10;5.78;;;40.80;29.60;;;;;;6252359;28;20087;-73
2023/06/21 13:19:14;;;;;;;18.90;6.70;;;41.10;29.40;;;;;;6243220;28;20478;-72
2023/06/21 13:22:16;;;;;;;16.63;5.93;;;41.50;28.90;;;;;;6238042;28;20038;-71
2023/06/21 13:25:17;;;;;;;11.63;5.45;;;41.70;28.40;;;;;;6240819;28;20041;-72
2023/06/21 13:28:18;;;;;;;18.23;5.07;;;41.80;28.00;;;;;;6255719;28;20033;-73
2023/06/21 13:31:20;;;;;;;16.00;4.80;;;41.90;27.90;;;;;;6255706;28;20139;-73
2023/06/21 13:34:20;;;;;;;12.50;5.28;;;41.90;27.00;;;;;;6239021;28;20045;-73
2023/06/21 13:37:21;;;;;;;22.00;4.28;;;41.90;26.90;;;;;;6265385;28;20350;-75
2023/06/21 13:40:22;;;;;;;16.63;3.83;;;42.00;26.10;;;;;;6285518;28;20395;-73
2023/06/21 13:43:23;;;;;;;21.63;4.38;;;42.20;24.90;;;;;;6270359;28;20479;-72
2023/06/21 13:46:24;;;;;;;13.35;4.38;;;42.20;24.80;;;;;;6270103;28;20449;-72
2023/06/21 13:49:25;;;;;;;11.20;4.03;;;41.90;24.90;;;;;;6269491;28;20469;-73
2023/06/21 13:52:31;;;;;;;15.05;4.35;;;41.60;25.20;;;;;;6269357;28;20132;-72
2023/06/21 13:55:32;;;;;;;16.85;4.68;;;41.20;25.50;;;;;;6265032;28;20393;-72
2023/06/21 13:58:33;;;;;;;14.70;4.82;;;41.10;25.70;;;;;;6226931;28;20033;-73
2023/06/21 14:01:35;;;;;;;12.60;4.22;;;41.50;25.50;;;;;;6244657;28;20494;-73
2023/06/21 14:04:36;;;;;;;22.02;4.63;;;41.70;25.10;;;;;;6243279;28;20037;-72
2023/06/21 14:07:40;;;;;;;18.67;4.05;;;42.10;24.90;;;;;;6259711;28;20045;-73
2023/06/21 14:10:41;;;;;;;20.23;4.80;;;42.40;24.70;;;;;;6259322;28;20069;-73
2023/06/21 14:13:42;;;;;;;17.02;4.60;;;42.50;24.70;;;;;;6259452;28;20592;-73
2023/06/21 14:16:42;;;;;;;12.68;4.30;;;42.80;24.30;;;;;;6242930;28;20030;-72
2023/06/21 14:19:43;;;;;;;18.58;4.35;;;43.00;24.00;;;;;;6243053;28;20141;-73
2023/06/21 14:22:45;;;;;;;14.48;4.32;;;43.50;23.90;;;;;;6244129;28;20041;-73
2023/06/21 14:25:45;;;;;;;15.32;4.50;;;44.10;23.60;;;;;;6243038;28;20045;-74
2023/06/21 14:28:46;;;;;;;23.60;4.90;;;44.60;23.10;;;;;;6243824;28;20041;-73
2023/06/21 14:31:47;;;;;;;12.98;4.22;;;45.00;23.00;;;;;;6242377;28;20038;-73
2023/06/21 14:34:49;;;;;;;13.15;4.65;;;45.00;23.00;;;;;;6258611;28;20116;-72
2023/06/21 14:37:53;;;;;;;13.60;5.10;;;45.10;23.00;;;;;;6245957;28;20075;-73
2023/06/21 14:40:54;;;;;;;15.63;3.95;;;45.00;22.90;;;;;;6244154;28;20071;-73
2023/06/21 14:43:55;;;;;;;10.45;3.75;;;44.70;22.90;;;;;;6243608;28;20520;-74
2023/06/21 14:46:56;;;;;;;18.08;4.85;;;44.50;23.10;;;;;;6258301;28;20123;-72
2023/06/21 14:49:57;;;;;;;13.90;4.80;;;44.50;22.80;;;;;;6242323;28;20316;-72
2023/06/21 14:52:58;;;;;;;16.05;4.43;;;43.90;23.00;;;;;;6241826;28;20029;-74
2023/06/21 14:55:59;;;;;;;16.88;4.28;;;43.20;23.60;;;;;;6242032;28;20091;-73
2023/06/21 14:59:00;;;;;;;11.25;3.47;;;42.60;23.80;;;;;;6244007;28;20035;-72
2023/06/21 15:02:01;;;;;;;14.80;3.80;;;42.70;23.70;;;;;;6258405;28;20037;-71
2023/06/21 15:05:02;;;;;;;16.10;4.50;;;42.50;23.00;;;;;;6243658;28;20117;-73
2023/06/21 15:08:03;;;;;;;16.42;3.88;;;42.50;23.30;;;;;;6257801;28;20378;-72
2023/06/21 15:11:05;;;;;;;8.98;3.45;;;42.20;23.60;;;;;;6244252;28;20081;-72
2023/06/21 15:14:06;;;;;;;16.02;3.50;;;41.30;24.40;;;;;;6258612;28;20033;-73
2023/06/21 15:17:07;;;;;;;12.65;4.00;;;40.30;25.30;;;;;;6241677;28;20466;-73
2023/06/21 15:20:08;;;;;;;11.02;4.00;;;39.50;26.30;;;;;;6241117;28;20041;-72
2023/06/21 15:23:09;;;;;;;14.70;4.10;;;39.20;26.80;;;;;;6240723;28;20045;-73
2023/06/21 15:26:10;;;;;;;14.73;4.32;;;38.90;27.20;;;;;;6242312;28;20175;-71
2023/06/21 15:29:11;;;;;;;12.15;4.35;;;38.50;27.70;;;;;;6242501;28;20033;-71
2023/06/21 15:32:13;;;;;;;13.80;4.18;;;38.00;28.30;;;;;;6256811;28;20037;-71
2023/06/21 15:35:14;;;;;;;11.30;4.00;;;37.60;28.90;;;;;;6242602;28;20048;-71
2023/06/21 15:38:15;;;;;;;18.83;4.20;;;37.10;29.90;;;;;;6242933;28;20068;-71